Time;durP1;ratioP1;P1;durP2;ratioP2;P2;SDS_P1;SDS_P2;PMS_P1;PMS_P2;Temp;Humidity;BMP_temperature;BMP_pressure;BME280_temperature;BME280_humidity;BME280_pressure;Samples;Min_cycle;Max_cycle;Signal;HPM_P1;HPM_P2
2022/01/26 00:07:56;;;;;;;6.68;6.07;;;22.20;50.00;;;;;;4996687;28;20195;-70
2022/01/26 00:10:23;;;;;;;6.18;5.57;;;22.20;50.00;;;;;;4997005;28;20188;-71
2022/01/26 00:12:49;;;;;;;5.93;5.32;;;22.20;50.10;;;;;;4996982;28;20231;-71
2022/01/26 00:15:15;;;;;;;5.50;5.00;;;22.20;50.00;;;;;;4997170;28;20203;-70
2022/01/26 00:17:41;;;;;;;5.45;4.95;;;22.20;50.00;;;;;;5013179;28;20199;-71
2022/01/26 00:27:52;;;;;;;5.70;5.10;;;22.20;49.90;;;;;;4997302;28;20180;-70
2022/01/26 00:38:32;;;;;;;7.18;6.47;;;22.20;49.80;;;;;;4996919;28;20220;-70
2022/01/26 00:38:46;;;;;;;5.18;4.78;;;22.20;49.80;;;;;;4996938;28;20187;-70
2022/01/26 00:41:17;;;;;;;5.88;5.10;;;22.20;49.90;;;;;;5013460;28;20184;-70
2022/01/26 00:43:52;;;;;;;5.88;4.80;;;22.20;49.80;;;;;;4996939;28;20216;-70
2022/01/26 00:46:19;;;;;;;5.63;5.13;;;22.20;49.80;;;;;;5013236;28;20670;-71
2022/01/26 00:48:45;;;;;;;6.25;5.65;;;22.20;49.70;;;;;;5013622;28;20176;-70
2022/01/26 00:51:17;;;;;;;5.70;5.10;;;22.20;49.80;;;;;;4980583;28;20271;-70
2022/01/26 00:53:47;;;;;;;6.22;5.60;;;22.20;49.90;;;;;;5012953;28;20273;-70
2022/01/26 00:56:14;;;;;;;6.13;5.60;;;22.10;49.70;;;;;;4996838;28;20192;-70
2022/01/26 00:58:40;;;;;;;6.25;5.65;;;22.10;49.70;;;;;;4996937;28;20623;-70
2022/01/26 01:01:06;;;;;;;6.13;5.63;;;22.20;49.70;;;;;;4980720;28;20183;-70
2022/01/26 01:03:36;;;;;;;6.45;5.80;;;22.20;49.60;;;;;;4996767;28;20208;-70
2022/01/26 01:06:13;;;;;;;6.07;5.50;;;22.20;49.70;;;;;;5013099;28;20198;-70
2022/01/26 01:08:41;;;;;;;6.40;5.80;;;22.20;49.70;;;;;;4996477;28;20212;-70
2022/01/26 01:11:09;;;;;;;5.50;5.00;;;22.10;49.70;;;;;;4996493;28;20335;-70
2022/01/26 01:13:39;;;;;;;5.13;4.70;;;22.20;49.70;;;;;;5012521;28;20224;-70
2022/01/26 01:16:08;;;;;;;5.45;5.03;;;22.10;49.60;;;;;;4996097;28;20186;-70
2022/01/26 01:31:55;;;;;;;5.90;5.40;;;22.10;49.50;;;;;;4995997;28;20188;-70
2022/01/26 01:34:34;;;;;;;7.03;6.32;;;22.10;49.60;;;;;;4995963;28;20318;-70
2022/01/26 01:37:05;;;;;;;5.57;5.07;;;22.10;49.50;;;;;;5012457;28;20164;-70
2022/01/26 01:39:33;;;;;;;6.68;5.30;;;22.10;49.60;;;;;;5013590;28;20199;-70
2022/01/26 01:42:00;;;;;;;5.70;5.20;;;22.20;49.70;;;;;;4996211;28;20252;-70
2022/01/26 01:44:26;;;;;;;5.70;5.20;;;22.10;49.50;;;;;;4995596;28;20230;-70
2022/01/26 01:46:53;;;;;;;5.10;4.60;;;22.10;49.50;;;;;;5013365;28;20176;-70
2022/01/26 01:49:20;;;;;;;5.70;5.20;;;22.10;49.50;;;;;;4979650;28;20223;-70
2022/01/26 01:52:11;;;;;;;5.53;5.03;;;22.10;49.40;;;;;;5012216;28;20211;-70
2022/01/26 01:54:38;;;;;;;6.15;5.57;;;22.20;49.50;;;;;;5012764;28;20289;-70
2022/01/26 01:57:04;;;;;;;6.30;5.70;;;22.20;49.50;;;;;;5012204;28;20717;-70
2022/01/26 01:59:32;;;;;;;6.10;5.60;;;22.10;49.40;;;;;;5012016;28;20180;-70
2022/01/26 02:02:01;;;;;;;5.75;5.25;;;22.10;49.40;;;;;;4995652;28;20172;-70
2022/01/26 02:04:27;;;;;;;5.68;5.15;;;22.10;49.30;;;;;;4995501;28;20204;-71
2022/01/26 02:06:53;;;;;;;5.88;5.32;;;22.20;49.50;;;;;;4996308;28;20184;-70
2022/01/26 02:09:19;;;;;;;6.25;5.65;;;22.10;49.30;;;;;;4995371;28;20199;-70
2022/01/26 02:11:53;;;;;;;5.50;5.00;;;22.10;49.40;;;;;;5012962;28;20274;-70
2022/01/26 02:14:34;;;;;;;5.57;5.07;;;22.10;49.40;;;;;;5011745;28;20953;-68
2022/01/26 02:49:22;;;;;;;5.13;4.70;;;22.20;49.40;;;;;;4995180;28;20230;-70
2022/01/26 02:55:38;;;;;;;5.72;5.22;;;22.10;49.20;;;;;;4994634;28;20188;-70
2022/01/26 03:03:21;;;;;;;5.05;4.55;;;22.10;48.90;;;;;;4984445;28;20307;-70
2022/01/26 03:05:56;;;;;;;4.95;4.45;;;22.10;49.20;;;;;;4994743;28;20196;-70
2022/01/26 03:08:30;;;;;;;4.40;4.10;;;22.10;49.10;;;;;;4995117;28;20198;-70
2022/01/26 03:10:59;;;;;;;4.85;4.35;;;22.10;49.00;;;;;;5012301;28;20640;-70
2022/01/26 03:13:29;;;;;;;4.97;4.50;;;22.10;49.00;;;;;;5010900;28;20212;-70
2022/01/26 03:16:09;;;;;;;5.47;5.00;;;22.10;49.00;;;;;;4994570;28;20211;-70
2022/01/26 03:21:26;;;;;;;5.40;4.82;;;22.10;49.00;;;;;;4981401;28;20200;-70
2022/01/26 03:29:39;;;;;;;4.55;4.15;;;22.10;49.00;;;;;;4975157;28;20235;-70
2022/01/26 03:32:48;;;;;;;4.95;4.50;;;22.10;49.00;;;;;;4975187;28;20181;-70
2022/01/26 03:35:13;;;;;;;5.13;4.72;;;22.10;49.00;;;;;;4974915;28;20283;-70
2022/01/26 03:37:39;;;;;;;4.88;4.47;;;22.10;49.00;;;;;;4992056;28;20192;-70
2022/01/26 03:40:13;;;;;;;5.32;4.82;;;22.10;49.00;;;;;;4995152;28;20670;-70
2022/01/26 03:42:40;;;;;;;4.78;4.38;;;22.10;49.00;;;;;;4995005;28;20255;-71
2022/01/26 03:45:06;;;;;;;5.22;4.80;;;22.10;48.90;;;;;;4962655;28;20559;-70
2022/01/26 03:47:32;;;;;;;4.90;4.05;;;22.10;48.90;;;;;;4994815;28;20194;-70
2022/01/26 03:49:58;;;;;;;4.63;4.22;;;22.10;48.90;;;;;;4978505;28;20235;-70
2022/01/26 03:52:23;;;;;;;4.40;4.00;;;22.10;48.90;;;;;;4978255;28;20185;-70
2022/01/26 03:54:49;;;;;;;4.25;3.85;;;22.10;48.90;;;;;;4978365;28;20212;-70
2022/01/26 03:57:15;;;;;;;4.78;4.40;;;22.10;49.00;;;;;;4962291;28;20180;-70
2022/01/26 03:59:41;;;;;;;4.63;4.22;;;22.10;48.90;;;;;;4994569;28;20181;-70
2022/01/26 04:02:07;;;;;;;4.40;4.00;;;22.10;49.00;;;;;;4994274;28;20569;-70
2022/01/26 04:04:40;;;;;;;4.53;4.13;;;22.10;49.00;;;;;;4994432;28;20205;-70
2022/01/26 04:07:05;;;;;;;4.55;4.15;;;22.10;48.90;;;;;;4978248;28;20173;-70
2022/01/26 04:09:31;;;;;;;4.03;3.72;;;22.10;48.90;;;;;;4994665;28;20192;-70
2022/01/26 04:11:57;;;;;;;4.38;3.97;;;22.10;48.90;;;;;;4995498;28;20196;-70
2022/01/26 04:14:28;;;;;;;4.45;4.05;;;22.10;48.80;;;;;;4978002;28;20220;-70
2022/01/26 04:16:53;;;;;;;4.35;3.97;;;22.10;48.90;;;;;;4978166;28;20169;-70
2022/01/26 04:19:20;;;;;;;5.15;4.00;;;22.10;48.90;;;;;;4961862;28;20188;-70
2022/01/26 04:21:59;;;;;;;4.93;4.43;;;22.10;48.80;;;;;;4961967;28;20181;-70
2022/01/26 04:24:32;;;;;;;5.00;4.40;;;22.10;48.90;;;;;;4977886;28;20213;-69
2022/01/26 04:27:03;;;;;;;4.28;3.88;;;22.10;48.90;;;;;;4994023;28;20633;-70
2022/01/26 04:29:32;;;;;;;4.90;4.20;;;22.10;48.90;;;;;;4977927;28;20208;-70
2022/01/26 04:32:00;;;;;;;4.93;3.83;;;22.10;48.80;;;;;;4993926;28;20185;-70
2022/01/26 04:34:27;;;;;;;3.58;3.30;;;22.10;48.80;;;;;;4993551;28;20704;-70
2022/01/26 04:39:47;;;;;;;4.00;3.70;;;22.10;48.80;;;;;;4967340;28;20196;-70
2022/01/26 04:42:19;;;;;;;3.90;3.60;;;22.10;48.80;;;;;;4995417;28;20170;-70
2022/01/26 04:44:56;;;;;;;4.57;4.10;;;22.10;48.80;;;;;;4977480;28;20217;-70
2022/01/26 04:47:22;;;;;;;4.65;4.25;;;22.10;48.80;;;;;;4994143;28;20177;-70
2022/01/26 04:49:47;;;;;;;4.88;4.47;;;22.10;48.60;;;;;;4993509;28;20181;-70
2022/01/26 04:52:13;;;;;;;4.20;3.83;;;22.10;48.60;;;;;;4993734;28;20196;-70
2022/01/26 04:54:39;;;;;;;4.43;4.05;;;22.10;48.60;;;;;;4977085;28;20212;-70
2022/01/26 04:57:05;;;;;;;4.78;4.28;;;22.10;48.60;;;;;;4977507;28;20191;-70
2022/01/26 04:59:31;;;;;;;5.50;4.78;;;22.10;48.60;;;;;;4961104;28;20219;-70
2022/01/26 05:01:57;;;;;;;4.65;4.25;;;22.10;48.50;;;;;;4993635;28;20193;-70
2022/01/26 05:04:22;;;;;;;4.70;4.30;;;22.10;49.10;;;;;;4976998;28;20208;-70
2022/01/26 05:06:48;;;;;;;5.30;4.78;;;22.00;48.60;;;;;;4993591;28;20227;-70
2022/01/26 05:09:14;;;;;;;4.93;4.47;;;22.10;48.60;;;;;;4993631;28;20199;-70
2022/01/26 05:11:42;;;;;;;4.43;4.03;;;22.10;48.50;;;;;;4993242;28;20222;-70
2022/01/26 05:14:08;;;;;;;4.50;3.95;;;22.10;48.60;;;;;;4993084;28;20232;-70
2022/01/26 05:16:34;;;;;;;4.18;3.78;;;22.10;48.50;;;;;;4960861;28;20185;-70
2022/01/26 05:19:01;;;;;;;3.90;3.60;;;22.10;48.60;;;;;;4993079;28;20196;-70
2022/01/26 05:21:29;;;;;;;3.97;3.67;;;22.10;48.50;;;;;;4961079;28;20191;-70
2022/01/26 05:23:55;;;;;;;4.22;3.83;;;22.10;48.50;;;;;;4992979;28;20308;-70
2022/01/26 05:26:21;;;;;;;4.40;3.95;;;22.10;48.60;;;;;;4960740;28;20274;-70
2022/01/26 05:28:47;;;;;;;3.83;3.53;;;22.10;48.70;;;;;;4976697;28;20185;-70
2022/01/26 05:31:13;;;;;;;4.15;3.75;;;22.10;48.80;;;;;;4976891;28;20193;-70
2022/01/26 05:33:39;;;;;;;4.07;3.67;;;22.10;49.60;;;;;;4976417;28;20373;-70
2022/01/26 05:36:05;;;;;;;4.40;4.00;;;22.10;48.40;;;;;;4992518;28;20193;-70
2022/01/26 05:38:31;;;;;;;4.18;3.78;;;22.00;48.10;;;;;;4976448;28;20177;-70
2022/01/26 05:41:01;;;;;;;4.60;4.20;;;22.00;48.10;;;;;;4992555;28;20196;-70
2022/01/26 05:43:32;;;;;;;4.50;4.10;;;22.00;48.10;;;;;;5020946;22;20235;-69
2022/01/26 05:46:03;;;;;;;5.72;4.50;;;22.00;48.00;;;;;;5014887;28;20176;-69
2022/01/26 05:48:29;;;;;;;4.40;4.00;;;22.00;47.80;;;;;;5015473;28;20176;-69
2022/01/26 05:51:04;;;;;;;4.43;4.10;;;22.00;47.60;;;;;;4999388;28;20207;-69
2022/01/26 05:53:31;;;;;;;4.40;4.00;;;22.00;47.60;;;;;;5015211;28;20226;-69
2022/01/26 05:55:58;;;;;;;5.20;4.70;;;21.90;47.40;;;;;;4998829;28;20183;-69
2022/01/26 05:58:24;;;;;;;4.72;4.15;;;21.90;47.40;;;;;;4999304;28;20218;-69
2022/01/26 06:00:50;;;;;;;4.38;4.00;;;21.90;47.50;;;;;;5014526;28;20176;-69
2022/01/26 06:03:16;;;;;;;4.03;3.72;;;21.90;47.20;;;;;;4999021;28;20294;-67
2022/01/26 06:05:42;;;;;;;4.70;4.30;;;21.90;47.10;;;;;;4998846;28;20282;-68
2022/01/26 06:08:08;;;;;;;5.78;3.95;;;21.90;47.00;;;;;;5015127;28;20241;-68
2022/01/26 06:10:34;;;;;;;4.68;4.20;;;21.90;47.00;;;;;;5015208;28;20191;-68
2022/01/26 06:13:00;;;;;;;4.32;3.92;;;21.90;46.80;;;;;;5014988;28;20222;-67
2022/01/26 06:15:26;;;;;;;4.88;4.38;;;21.90;46.80;;;;;;4998587;28;20244;-69
2022/01/26 06:17:52;;;;;;;4.50;4.13;;;21.90;46.70;;;;;;5015172;28;20212;-69
2022/01/26 06:20:18;;;;;;;4.70;4.25;;;21.80;46.60;;;;;;5015052;28;20218;-68
2022/01/26 06:22:44;;;;;;;4.82;4.43;;;21.90;46.50;;;;;;5032611;28;20744;-68
2022/01/26 06:25:10;;;;;;;5.18;4.68;;;21.80;46.40;;;;;;5015113;28;20203;-68
2022/01/26 06:27:38;;;;;;;4.72;4.32;;;21.90;46.40;;;;;;5015180;28;20245;-68
2022/01/26 06:30:06;;;;;;;5.15;4.75;;;21.80;46.30;;;;;;4998522;28;20195;-68
2022/01/26 06:32:33;;;;;;;5.60;5.10;;;21.80;46.20;;;;;;5032283;28;20214;-68
2022/01/26 06:34:59;;;;;;;5.68;5.07;;;21.80;46.20;;;;;;4998405;28;20191;-68
2022/01/26 06:37:25;;;;;;;6.68;6.05;;;21.80;46.10;;;;;;5014815;28;20221;-68
2022/01/26 06:39:51;;;;;;;6.15;5.55;;;21.80;46.10;;;;;;5032417;28;20184;-68
2022/01/26 06:42:21;;;;;;;5.63;5.13;;;21.80;46.00;;;;;;4998432;28;20272;-68
2022/01/26 06:45:07;;;;;;;5.88;5.32;;;21.80;46.00;;;;;;5014286;28;20345;-68
2022/01/26 06:49:58;;;;;;;5.45;4.95;;;21.80;45.90;;;;;;5014418;28;20194;-68
2022/01/26 06:52:24;;;;;;;5.38;4.88;;;21.80;45.90;;;;;;5014406;28;20185;-68
2022/01/26 06:54:50;;;;;;;5.57;5.07;;;21.80;45.90;;;;;;4997898;28;20210;-68
2022/01/26 06:57:16;;;;;;;5.97;5.47;;;21.80;45.80;;;;;;4998124;28;20186;-68
2022/01/26 06:59:41;;;;;;;5.65;5.10;;;21.80;45.70;;;;;;5014571;28;20211;-68
2022/01/26 07:02:08;;;;;;;5.43;4.93;;;21.80;45.70;;;;;;4998162;28;20221;-69
2022/01/26 07:04:33;;;;;;;5.47;4.97;;;21.80;45.60;;;;;;5014416;28;20245;-68
2022/01/26 07:06:59;;;;;;;5.47;4.97;;;21.80;45.50;;;;;;4998393;28;20187;-69
2022/01/26 07:09:25;;;;;;;5.45;4.95;;;21.80;45.50;;;;;;4998123;28;20626;-68
2022/01/26 07:11:51;;;;;;;5.82;5.32;;;21.80;45.40;;;;;;5015745;28;20178;-68
2022/01/26 07:19:45;;;;;;;6.13;5.63;;;21.80;45.40;;;;;;5018227;28;20292;-69
2022/01/26 07:20:21;;;;;;;6.63;6.03;;;21.80;45.30;;;;;;4999477;28;20212;-68
2022/01/26 07:22:40;;;;;;;6.18;5.57;;;21.80;45.20;;;;;;4998484;28;20199;-68
2022/01/26 07:25:07;;;;;;;6.47;5.88;;;21.80;45.30;;;;;;5004486;28;20215;-68
2022/01/26 07:27:32;;;;;;;6.35;5.75;;;21.80;45.20;;;;;;5017901;28;20273;-68
2022/01/26 07:30:00;;;;;;;6.50;5.90;;;21.80;45.10;;;;;;5018300;28;20333;-68
2022/01/26 07:32:28;;;;;;;5.97;5.47;;;21.80;45.10;;;;;;5018016;28;20187;-68
2022/01/26 07:34:54;;;;;;;6.35;5.75;;;21.80;45.20;;;;;;5017511;28;20233;-68
2022/01/26 07:37:21;;;;;;;6.80;6.20;;;21.80;45.00;;;;;;4997721;28;20270;-69
2022/01/26 07:40:03;;;;;;;6.78;6.18;;;21.80;45.00;;;;;;4981598;28;20193;-69
2022/01/26 07:42:29;;;;;;;6.82;6.22;;;21.80;45.00;;;;;;4997063;28;20203;-69
2022/01/26 07:44:59;;;;;;;6.75;6.15;;;21.80;44.90;;;;;;4989721;28;20208;-68
2022/01/26 07:47:24;;;;;;;8.07;6.57;;;21.80;44.90;;;;;;4983739;28;20184;-68
2022/01/26 07:49:54;;;;;;;6.78;6.18;;;21.80;44.80;;;;;;5001220;28;20194;-68
2022/01/26 07:52:20;;;;;;;7.28;6.57;;;21.80;44.80;;;;;;5034696;28;20558;-69
2022/01/26 07:54:48;;;;;;;7.40;6.63;;;21.80;44.80;;;;;;4985526;28;20211;-68
2022/01/26 07:57:14;;;;;;;6.95;6.35;;;21.80;44.70;;;;;;5016127;28;20214;-68
2022/01/26 07:59:39;;;;;;;8.30;7.53;;;21.80;44.60;;;;;;5032805;28;20187;-68
2022/01/26 08:02:05;;;;;;;8.00;7.28;;;21.80;44.70;;;;;;5005377;28;20180;-69
2022/01/26 08:04:31;;;;;;;7.85;7.05;;;21.80;44.60;;;;;;5011913;28;20234;-68
2022/01/26 08:06:57;;;;;;;6.80;6.20;;;21.70;44.40;;;;;;5016953;28;20650;-69
2022/01/26 08:09:22;;;;;;;7.03;6.32;;;21.70;44.50;;;;;;5012707;28;20190;-68
2022/01/26 08:11:48;;;;;;;7.07;6.38;;;21.80;44.60;;;;;;4997978;28;20188;-68
2022/01/26 08:14:14;;;;;;;6.93;6.32;;;21.80;44.80;;;;;;4981520;28;20216;-67
2022/01/26 08:16:40;;;;;;;7.30;6.60;;;21.80;44.50;;;;;;5008020;28;20192;-68
2022/01/26 08:19:07;;;;;;;7.22;6.53;;;21.70;44.40;;;;;;4981309;28;20177;-68
2022/01/26 08:21:33;;;;;;;6.93;6.32;;;21.80;44.40;;;;;;4986132;28;20187;-68
2022/01/26 08:24:03;;;;;;;7.55;6.85;;;21.80;44.50;;;;;;5000122;28;20209;-68
2022/01/26 08:26:39;;;;;;;7.00;6.40;;;21.80;44.40;;;;;;4994847;28;20214;-68
2022/01/26 08:29:12;;;;;;;7.70;7.00;;;21.80;44.40;;;;;;5000063;28;20250;-68
2022/01/26 08:31:38;;;;;;;8.32;7.47;;;21.80;44.40;;;;;;4983746;28;20207;-68
2022/01/26 08:34:04;;;;;;;8.30;7.60;;;21.80;44.30;;;;;;4981082;28;20242;-68
2022/01/26 08:36:29;;;;;;;7.53;6.82;;;21.80;44.30;;;;;;4980481;28;20199;-68
2022/01/26 08:38:55;;;;;;;8.15;7.35;;;21.80;44.30;;;;;;4997047;28;20180;-67
2022/01/26 08:41:21;;;;;;;8.38;7.53;;;21.80;44.30;;;;;;4985468;28;20206;-68
2022/01/26 08:43:47;;;;;;;8.07;7.28;;;21.80;44.30;;;;;;5033120;28;20223;-68
2022/01/26 08:46:12;;;;;;;8.57;7.78;;;21.80;44.30;;;;;;4996536;28;20199;-69
2022/01/26 08:48:38;;;;;;;8.15;7.45;;;21.80;44.20;;;;;;4981034;28;20211;-68
2022/01/26 08:51:04;;;;;;;8.82;8.02;;;21.80;44.20;;;;;;5002866;28;20184;-71
2022/01/26 08:53:29;;;;;;;8.65;7.75;;;21.80;44.20;;;;;;5016466;28;20615;-69
2022/01/26 08:55:55;;;;;;;7.07;6.47;;;21.80;44.20;;;;;;4996437;28;20188;-68
2022/01/26 08:58:21;;;;;;;7.38;6.68;;;21.80;44.20;;;;;;4996983;28;20184;-68
2022/01/26 09:00:47;;;;;;;7.22;6.63;;;21.80;44.20;;;;;;4992238;28;20235;-68
2022/01/26 09:03:13;;;;;;;7.32;6.60;;;21.80;44.10;;;;;;4996761;28;20231;-68
2022/01/26 09:05:38;;;;;;;7.43;6.72;;;21.80;44.20;;;;;;4996004;28;20202;-68
2022/01/26 09:08:04;;;;;;;7.38;6.70;;;21.80;44.20;;;;;;4996549;28;20180;-68
2022/01/26 09:10:33;;;;;;;7.93;7.15;;;21.80;44.10;;;;;;4996521;28;20209;-68
2022/01/26 09:12:59;;;;;;;8.27;7.30;;;21.80;44.10;;;;;;5013944;28;20211;-69
2022/01/26 09:15:30;;;;;;;8.35;7.45;;;21.80;44.10;;;;;;5000045;28;20191;-69
2022/01/26 09:18:01;;;;;;;8.77;7.97;;;21.80;44.10;;;;;;5016225;28;20199;-68
2022/01/26 09:20:27;;;;;;;8.40;7.63;;;21.80;44.00;;;;;;5016044;28;20647;-67
2022/01/26 09:22:52;;;;;;;9.18;8.25;;;21.80;44.00;;;;;;4999858;28;20189;-68
2022/01/26 09:25:18;;;;;;;9.50;8.60;;;21.80;44.60;;;;;;4996722;28;20196;-68
2022/01/26 09:27:44;;;;;;;8.85;7.95;;;21.90;44.10;;;;;;4980244;28;20232;-66
2022/01/26 09:30:11;;;;;;;10.48;8.95;;;21.80;44.00;;;;;;4996262;28;20208;-68
2022/01/26 09:32:37;;;;;;;9.77;8.88;;;21.90;44.10;;;;;;4996092;28;20246;-69
2022/01/26 09:35:06;;;;;;;9.38;8.48;;;21.90;44.00;;;;;;4995348;28;20214;-68
2022/01/26 09:37:33;;;;;;;9.63;8.73;;;21.90;44.10;;;;;;5015745;28;20210;-68
2022/01/26 09:39:59;;;;;;;10.15;9.25;;;21.90;44.10;;;;;;4985610;28;20184;-68
2022/01/26 09:42:24;;;;;;;9.85;8.82;;;21.90;44.10;;;;;;4995882;28;20199;-68
2022/01/26 09:44:51;;;;;;;9.25;8.35;;;21.90;44.10;;;;;;5013221;28;20219;-68
2022/01/26 09:47:16;;;;;;;9.23;8.32;;;21.90;44.10;;;;;;5014605;28;20187;-69
2022/01/26 09:49:44;;;;;;;9.10;8.25;;;21.90;44.10;;;;;;4999109;28;20187;-68
2022/01/26 09:52:15;;;;;;;8.43;7.63;;;21.90;44.10;;;;;;4999517;28;20248;-69
2022/01/26 09:54:42;;;;;;;8.43;7.72;;;22.00;44.20;;;;;;5014982;28;20230;-67
2022/01/26 09:57:08;;;;;;;8.07;7.28;;;22.00;44.20;;;;;;4995465;28;20585;-69
2022/01/26 09:59:34;;;;;;;8.38;7.57;;;22.00;44.20;;;;;;5013170;28;20184;-68
2022/01/26 10:02:01;;;;;;;8.45;7.65;;;22.00;44.20;;;;;;4995553;28;20208;-68
2022/01/26 10:04:34;;;;;;;8.30;7.50;;;22.00;44.20;;;;;;4995253;28;20220;-68
2022/01/26 10:09:56;;;;;;;8.65;7.85;;;22.00;44.30;;;;;;5010829;28;20399;-68
2022/01/26 10:15:28;;;;;;;9.15;8.15;;;22.00;44.30;;;;;;5012660;28;20204;-69
2022/01/26 10:18:12;;;;;;;7.75;7.05;;;22.00;44.30;;;;;;5013074;28;20211;-68
2022/01/26 10:20:57;;;;;;;8.35;7.55;;;22.00;44.30;;;;;;4989187;28;20271;-68
2022/01/26 10:23:28;;;;;;;7.13;6.53;;;22.00;44.20;;;;;;5006349;28;20272;-68
2022/01/26 10:26:14;;;;;;;8.63;7.85;;;22.00;44.20;;;;;;5014959;28;20176;-69
2022/01/26 10:28:59;;;;;;;9.13;8.20;;;22.00;44.30;;;;;;5014906;28;20195;-68
2022/01/26 10:31:35;;;;;;;9.00;8.20;;;22.00;44.30;;;;;;5008613;28;20191;-68
2022/01/26 10:34:10;;;;;;;8.02;7.32;;;22.00;44.30;;;;;;5014763;28;20230;-71
2022/01/26 10:36:54;;;;;;;7.78;7.07;;;22.00;44.40;;;;;;4998156;28;20208;-68
2022/01/26 10:42:05;;;;;;;7.55;6.88;;;22.10;44.40;;;;;;4994981;28;20655;-68
2022/01/26 10:44:38;;;;;;;7.90;7.20;;;22.10;45.00;;;;;;4978696;28;20219;-69
2022/01/26 10:47:07;;;;;;;7.47;6.78;;;22.10;44.50;;;;;;4978401;28;20211;-68
2022/01/26 10:52:40;;;;;;;8.20;7.40;;;22.10;44.50;;;;;;4994877;28;20188;-69
2022/01/26 10:55:08;;;;;;;7.07;6.43;;;22.10;44.50;;;;;;5016621;28;20226;-68
2022/01/26 10:57:35;;;;;;;6.45;5.85;;;22.10;44.60;;;;;;4997734;28;20208;-69
2022/01/26 11:00:05;;;;;;;6.60;6.10;;;22.10;44.60;;;;;;5017872;28;20274;-68
2022/01/26 11:02:33;;;;;;;6.18;5.68;;;22.10;44.50;;;;;;4998156;28;20187;-69
2022/01/26 11:05:00;;;;;;;6.15;5.65;;;22.10;44.60;;;;;;4996482;28;20206;-68
2022/01/26 11:07:37;;;;;;;6.50;5.90;;;22.10;44.50;;;;;;5012373;28;20199;-68
2022/01/26 11:10:06;;;;;;;6.35;5.75;;;22.10;44.50;;;;;;5000339;28;20251;-68
2022/01/26 11:12:38;;;;;;;6.25;5.70;;;22.10;44.50;;;;;;4994736;28;20199;-69
2022/01/26 11:15:15;;;;;;;6.70;6.07;;;22.10;44.50;;;;;;5007176;28;20211;-69
2022/01/26 11:17:46;;;;;;;7.28;6.57;;;22.10;44.50;;;;;;5005518;28;20179;-69
2022/01/26 11:20:21;;;;;;;6.85;6.20;;;22.10;44.50;;;;;;5002920;28;20183;-67
2022/01/26 11:23:02;;;;;;;6.72;6.13;;;22.10;44.50;;;;;;5031844;28;20179;-69
2022/01/26 11:25:39;;;;;;;5.60;5.10;;;22.10;44.50;;;;;;5014146;28;20179;-69
2022/01/26 11:28:21;;;;;;;5.88;5.38;;;22.10;44.50;;;;;;5014263;28;20178;-69
2022/01/26 11:30:50;;;;;;;5.35;4.85;;;22.10;44.50;;;;;;4994653;28;20195;-68
2022/01/26 11:33:20;;;;;;;6.30;5.75;;;22.10;44.50;;;;;;4994343;28;20223;-69
2022/01/26 11:35:49;;;;;;;5.90;5.43;;;22.10;44.50;;;;;;4982346;28;20187;-69
2022/01/26 11:47:19;;;;;;;5.38;4.90;;;22.20;44.60;;;;;;5033829;28;20183;-69
2022/01/26 11:49:46;;;;;;;4.97;4.47;;;22.20;44.60;;;;;;5038351;28;20191;-69
2022/01/26 11:52:22;;;;;;;5.50;5.00;;;22.20;45.20;;;;;;5054007;28;20166;-69
2022/01/26 11:54:52;;;;;;;5.50;5.00;;;22.20;44.60;;;;;;5033479;28;20218;-68
2022/01/26 11:57:35;;;;;;;5.40;4.90;;;22.20;44.60;;;;;;5049798;28;20186;-70
2022/01/26 12:00:06;;;;;;;5.57;5.07;;;22.20;44.60;;;;;;5043156;28;20191;-69
2022/01/26 12:05:12;;;;;;;5.78;5.30;;;22.20;44.60;;;;;;5055017;28;20248;-69
2022/01/26 12:08:00;;;;;;;4.97;4.57;;;22.20;44.60;;;;;;5032424;28;20749;-70
2022/01/26 12:10:30;;;;;;;5.32;4.82;;;22.20;44.60;;;;;;5046421;28;20186;-69
2022/01/26 12:13:06;;;;;;;4.57;4.10;;;22.20;44.60;;;;;;5061638;28;20225;-68
2022/01/26 12:15:44;;;;;;;4.85;4.43;;;22.20;44.70;;;;;;5049005;28;20213;-70
2022/01/26 12:34:40;;;;;;;4.20;3.88;;;22.30;44.60;;;;;;5054937;28;20278;-68
2022/01/26 12:43:03;;;;;;;4.97;4.57;;;22.30;44.60;;;;;;5041712;28;20186;-68
2022/01/26 12:45:28;;;;;;;4.25;3.95;;;22.30;44.50;;;;;;5052776;28;20658;-69
2022/01/26 12:47:58;;;;;;;4.13;3.83;;;22.30;44.50;;;;;;5063183;28;20208;-69
2022/01/26 12:50:26;;;;;;;4.50;4.20;;;22.30;44.50;;;;;;5019916;28;20270;-68
2022/01/26 12:52:55;;;;;;;4.47;4.07;;;22.30;44.40;;;;;;5036327;28;20210;-69
2022/01/26 12:55:29;;;;;;;4.60;4.20;;;22.30;44.50;;;;;;5035978;28;20202;-69
2022/01/26 12:57:55;;;;;;;4.72;4.32;;;22.30;44.50;;;;;;5036340;28;20388;-69
2022/01/26 13:00:24;;;;;;;4.47;4.07;;;22.30;44.50;;;;;;5028930;28;20303;-69
2022/01/26 13:02:53;;;;;;;4.22;3.80;;;22.30;44.60;;;;;;5048149;28;20262;-69
2022/01/26 13:05:27;;;;;;;4.35;3.92;;;22.30;44.80;;;;;;5019625;28;20255;-69
2022/01/26 13:08:05;;;;;;;4.18;3.78;;;22.30;44.80;;;;;;5019897;28;20182;-69
2022/01/26 13:10:32;;;;;;;4.65;4.05;;;22.30;44.80;;;;;;5053537;28;20177;-69
2022/01/26 13:13:17;;;;;;;4.20;3.90;;;22.30;44.70;;;;;;5019757;28;20206;-69
2022/01/26 13:16:10;;;;;;;4.60;4.20;;;22.30;44.50;;;;;;5019581;28;20281;-70
2022/01/26 13:21:30;;;;;;;4.68;4.28;;;22.30;44.40;;;;;;5035844;28;20690;-70
2022/01/26 13:24:24;;;;;;;5.10;4.68;;;22.30;44.40;;;;;;5053440;28;20214;-69
2022/01/26 13:27:08;;;;;;;5.90;5.05;;;22.30;44.40;;;;;;5035788;28;20269;-69
2022/01/26 13:29:52;;;;;;;4.68;4.28;;;22.30;44.40;;;;;;5035834;28;20174;-68
2022/01/26 13:32:50;;;;;;;4.88;4.47;;;22.40;44.50;;;;;;5035574;28;20712;-69
2022/01/26 13:38:05;;;;;;;6.60;5.90;;;22.40;44.50;;;;;;5035474;28;20174;-68
2022/01/26 13:40:48;;;;;;;6.13;5.55;;;22.30;44.40;;;;;;5032787;28;20212;-69
2022/01/26 13:46:38;;;;;;;5.45;4.95;;;22.30;44.30;;;;;;5035380;28;20175;-69
2022/01/26 13:49:11;;;;;;;6.10;5.15;;;22.30;44.70;;;;;;5053012;28;20325;-69
2022/01/26 14:01:48;;;;;;;6.35;5.75;;;22.30;44.30;;;;;;5052941;28;20183;-69
2022/01/26 14:04:17;;;;;;;5.82;4.93;;;22.40;44.40;;;;;;5018349;28;20250;-68
2022/01/26 14:06:45;;;;;;;6.05;5.47;;;22.30;44.30;;;;;;5052825;28;20183;-69
2022/01/26 14:09:11;;;;;;;5.88;4.72;;;22.30;44.30;;;;;;5053049;28;20186;-69
2022/01/26 14:11:38;;;;;;;5.25;4.75;;;22.30;44.30;;;;;;5018406;28;20178;-69
2022/01/26 14:14:04;;;;;;;5.40;4.90;;;22.30;44.30;;;;;;5018511;28;20217;-69
2022/01/26 14:16:37;;;;;;;5.25;4.72;;;22.30;44.40;;;;;;5034679;28;20186;-69
2022/01/26 14:19:14;;;;;;;5.30;4.80;;;22.30;44.30;;;;;;5018649;28;20210;-69
2022/01/26 14:24:50;;;;;;;6.20;5.57;;;22.30;44.30;;;;;;5034811;28;20206;-67
2022/01/26 14:27:17;;;;;;;6.72;5.75;;;22.30;44.40;;;;;;5034682;28;20208;-67
2022/01/26 14:40:47;;;;;;;4.88;4.47;;;22.30;44.30;;;;;;5072535;28;20613;-66
2022/01/26 14:54:17;;;;;;;5.88;5.22;;;22.30;44.30;;;;;;5054795;28;20225;-68
2022/01/26 15:40:30;;;;;;;6.25;5.75;;;22.30;44.40;;;;;;5005111;28;20263;-66
2022/01/26 15:51:02;;;;;;;7.88;7.07;;;22.30;44.40;;;;;;5013195;28;20250;-66
2022/01/26 18:16:43;;;;;;;7.07;6.47;;;22.20;43.90;;;;;;4991096;28;20181;-71
2022/01/26 18:46:28;;;;;;;7.05;6.45;;;22.20;43.90;;;;;;4992301;28;20239;-71
2022/01/26 18:49:17;;;;;;;7.88;7.07;;;22.20;43.90;;;;;;4969187;28;20190;-71
2022/01/26 18:51:53;;;;;;;7.63;6.82;;;22.20;43.90;;;;;;4953046;29;20254;-71
2022/01/26 18:54:31;;;;;;;6.00;5.50;;;22.20;43.90;;;;;;4952853;28;20222;-69
2022/01/26 18:57:02;;;;;;;6.60;6.00;;;22.20;43.80;;;;;;4954173;28;20163;-70
2022/01/26 18:59:28;;;;;;;6.30;5.75;;;22.20;43.90;;;;;;4953056;29;20650;-71
2022/01/26 19:01:56;;;;;;;6.43;5.82;;;22.20;43.90;;;;;;4952612;28;20187;-70
2022/01/26 19:04:36;;;;;;;5.63;5.13;;;22.20;43.80;;;;;;4933510;29;20221;-71
2022/01/26 19:07:04;;;;;;;7.50;6.80;;;22.20;43.80;;;;;;4944801;28;20198;-70
2022/01/26 19:09:33;;;;;;;9.25;7.07;;;22.20;43.80;;;;;;4953799;29;20198;-71
2022/01/26 19:12:02;;;;;;;7.60;6.90;;;22.20;43.80;;;;;;4937757;29;20199;-71
2022/01/26 19:14:34;;;;;;;8.73;7.82;;;22.20;43.80;;;;;;4937324;29;20227;-70
2022/01/26 19:17:07;;;;;;;8.40;7.53;;;22.20;43.80;;;;;;4938793;29;20191;-70
2022/01/26 19:24:51;;;;;;;7.38;6.78;;;22.20;43.80;;;;;;4937646;29;20566;-71
2022/01/26 19:27:35;;;;;;;6.70;6.10;;;22.20;43.80;;;;;;4937507;29;20191;-70
2022/01/26 19:46:02;;;;;;;6.72;6.13;;;22.10;43.80;;;;;;4955829;28;20230;-71
2022/01/26 19:51:13;;;;;;;7.05;6.35;;;22.10;43.70;;;;;;4957340;29;20237;-70
2022/01/26 19:53:40;;;;;;;7.50;6.80;;;22.10;43.70;;;;;;4939947;29;20222;-71
2022/01/26 19:56:06;;;;;;;7.55;6.82;;;22.10;43.60;;;;;;4939481;29;20210;-70
2022/01/26 19:58:32;;;;;;;8.07;7.35;;;22.20;43.70;;;;;;4955759;29;20190;-70
2022/01/26 20:00:59;;;;;;;8.63;7.78;;;22.20;43.70;;;;;;4957225;28;20212;-71
2022/01/26 20:03:26;;;;;;;7.63;6.93;;;22.20;43.70;;;;;;4955958;28;20273;-70
2022/01/26 20:05:53;;;;;;;8.45;6.47;;;22.20;43.60;;;;;;4955660;29;20213;-70
2022/01/26 20:10:57;;;;;;;7.85;7.03;;;22.20;43.70;;;;;;4958759;28;20195;-70